sensor_id;sensor_type;location;lat;lon;timestamp;P1;durP1;ratioP1;P2;durP2;ratioP2
4210;SDS011;2119;48.828;12.396;2023-04-24T00:01:52;4.33;;;1.80;;
4210;SDS011;2119;48.828;12.396;2023-04-24T00:06:56;2.43;;;1.90;;
4210;SDS011;2119;48.828;12.396;2023-04-24T00:11:58;4.13;;;2.87;;
4210;SDS011;2119;48.828;12.396;2023-04-24T00:22:02;3.07;;;2.50;;
4210;SDS011;2119;48.828;12.396;2023-04-24T00:27:02;2.50;;;2.30;;
4210;SDS011;2119;48.828;12.396;2023-04-24T00:37:06;2.97;;;2.77;;
4210;SDS011;2119;48.828;12.396;2023-04-24T00:42:07;2.90;;;2.70;;
4210;SDS011;2119;48.828;12.396;2023-04-24T00:47:07;3.10;;;2.70;;
4210;SDS011;2119;48.828;12.396;2023-04-24T00:52:09;2.90;;;2.70;;
4210;SDS011;2119;48.828;12.396;2023-04-24T00:57:12;5.20;;;3.10;;
4210;SDS011;2119;48.828;12.396;2023-04-24T01:07:19;3.00;;;2.80;;
4210;SDS011;2119;48.828;12.396;2023-04-24T01:12:21;3.53;;;2.87;;
4210;SDS011;2119;48.828;12.396;2023-04-24T01:17:22;4.67;;;3.50;;
4210;SDS011;2119;48.828;12.396;2023-04-24T01:22:23;3.60;;;3.07;;
4210;SDS011;2119;48.828;12.396;2023-04-24T01:27:25;3.67;;;3.37;;
4210;SDS011;2119;48.828;12.396;2023-04-24T01:32:25;3.13;;;2.93;;
4210;SDS011;2119;48.828;12.396;2023-04-24T01:37:27;3.43;;;3.00;;
4210;SDS011;2119;48.828;12.396;2023-04-24T01:42:27;4.07;;;3.77;;
4210;SDS011;2119;48.828;12.396;2023-04-24T01:47:30;3.50;;;3.20;;
4210;SDS011;2119;48.828;12.396;2023-04-24T01:52:30;3.90;;;3.60;;
4210;SDS011;2119;48.828;12.396;2023-04-24T01:57:35;3.30;;;3.00;;
4210;SDS011;2119;48.828;12.396;2023-04-24T02:02:35;3.77;;;3.50;;
4210;SDS011;2119;48.828;12.396;2023-04-24T02:07:35;3.67;;;3.40;;
4210;SDS011;2119;48.828;12.396;2023-04-24T02:12:38;2.97;;;2.77;;
4210;SDS011;2119;48.828;12.396;2023-04-24T02:17:46;3.80;;;3.50;;
4210;SDS011;2119;48.828;12.396;2023-04-24T02:22:47;4.03;;;3.50;;
4210;SDS011;2119;48.828;12.396;2023-04-24T02:27:48;3.73;;;3.43;;
4210;SDS011;2119;48.828;12.396;2023-04-24T02:32:49;4.03;;;3.63;;
4210;SDS011;2119;48.828;12.396;2023-04-24T02:37:50;3.03;;;2.73;;
4210;SDS011;2119;48.828;12.396;2023-04-24T02:42:51;3.37;;;3.17;;
4210;SDS011;2119;48.828;12.396;2023-04-24T02:47:52;4.20;;;3.90;;
4210;SDS011;2119;48.828;12.396;2023-04-24T02:52:53;4.00;;;3.17;;
4210;SDS011;2119;48.828;12.396;2023-04-24T03:03:00;3.03;;;2.73;;
4210;SDS011;2119;48.828;12.396;2023-04-24T03:08:00;3.30;;;3.00;;
4210;SDS011;2119;48.828;12.396;2023-04-24T03:13:02;3.20;;;3.00;;
4210;SDS011;2119;48.828;12.396;2023-04-24T03:18:09;3.07;;;2.53;;
4210;SDS011;2119;48.828;12.396;2023-04-24T03:23:11;3.20;;;3.00;;
4210;SDS011;2119;48.828;12.396;2023-04-24T03:28:11;4.10;;;2.97;;
4210;SDS011;2119;48.828;12.396;2023-04-24T03:33:12;4.22;;;3.33;;
4210;SDS011;2119;48.828;12.396;2023-04-24T03:38:12;3.50;;;3.20;;
4210;SDS011;2119;48.828;12.396;2023-04-24T03:43:23;2.92;;;2.72;;
4210;SDS011;2119;48.828;12.396;2023-04-24T03:48:24;3.50;;;3.00;;
4210;SDS011;2119;48.828;12.396;2023-04-24T03:53:24;5.40;;;3.70;;
4210;SDS011;2119;48.828;12.396;2023-04-24T03:58:24;3.73;;;3.40;;
4210;SDS011;2119;48.828;12.396;2023-04-24T04:03:26;3.80;;;2.93;;
4210;SDS011;2119;48.828;12.396;2023-04-24T04:08:26;3.50;;;3.20;;
4210;SDS011;2119;48.828;12.396;2023-04-24T04:13:28;3.13;;;2.93;;
4210;SDS011;2119;48.828;12.396;2023-04-24T04:18:29;3.30;;;3.10;;
4210;SDS011;2119;48.828;12.396;2023-04-24T04:28:58;4.17;;;3.87;;
4210;SDS011;2119;48.828;12.396;2023-04-24T04:34:01;3.77;;;3.53;;
4210;SDS011;2119;48.828;12.396;2023-04-24T04:39:02;3.07;;;2.87;;
4210;SDS011;2119;48.828;12.396;2023-04-24T04:44:04;3.17;;;2.97;;
4210;SDS011;2119;48.828;12.396;2023-04-24T04:54:12;3.00;;;2.80;;
4210;SDS011;2119;48.828;12.396;2023-04-24T04:59:14;3.73;;;3.30;;
4210;SDS011;2119;48.828;12.396;2023-04-24T05:04:15;3.23;;;2.90;;
4210;SDS011;2119;48.828;12.396;2023-04-24T05:09:15;3.20;;;3.00;;
4210;SDS011;2119;48.828;12.396;2023-04-24T05:14:16;3.30;;;3.00;;
4210;SDS011;2119;48.828;12.396;2023-04-24T05:24:26;2.30;;;2.10;;
4210;SDS011;2119;48.828;12.396;2023-04-24T05:29:26;3.43;;;2.67;;
4210;SDS011;2119;48.828;12.396;2023-04-24T05:34:32;4.22;;;3.92;;
4210;SDS011;2119;48.828;12.396;2023-04-24T05:39:36;4.80;;;2.70;;
4210;SDS011;2119;48.828;12.396;2023-04-24T05:44:36;3.33;;;2.90;;
4210;SDS011;2119;48.828;12.396;2023-04-24T05:49:37;3.57;;;2.90;;
4210;SDS011;2119;48.828;12.396;2023-04-24T05:54:38;3.77;;;3.47;;
4210;SDS011;2119;48.828;12.396;2023-04-24T05:59:40;4.13;;;2.57;;
4210;SDS011;2119;48.828;12.396;2023-04-24T06:04:50;5.43;;;2.40;;
4210;SDS011;2119;48.828;12.396;2023-04-24T06:09:52;3.80;;;2.60;;
4210;SDS011;2119;48.828;12.396;2023-04-24T06:14:55;3.97;;;2.40;;
4210;SDS011;2119;48.828;12.396;2023-04-24T06:19:55;2.70;;;2.50;;
4210;SDS011;2119;48.828;12.396;2023-04-24T06:30:25;3.00;;;2.23;;
4210;SDS011;2119;48.828;12.396;2023-04-24T06:35:25;2.93;;;2.47;;
4210;SDS011;2119;48.828;12.396;2023-04-24T06:40:26;3.37;;;3.07;;
4210;SDS011;2119;48.828;12.396;2023-04-24T06:50:57;2.97;;;2.70;;
4210;SDS011;2119;48.828;12.396;2023-04-24T06:55:59;6.13;;;2.80;;
4210;SDS011;2119;48.828;12.396;2023-04-24T07:01:04;3.00;;;2.77;;
4210;SDS011;2119;48.828;12.396;2023-04-24T07:06:11;3.73;;;2.60;;
4210;SDS011;2119;48.828;12.396;2023-04-24T07:11:17;2.50;;;2.30;;
4210;SDS011;2119;48.828;12.396;2023-04-24T07:37:33;2.10;;;2.00;;
4210;SDS011;2119;48.828;12.396;2023-04-24T07:47:41;2.83;;;1.77;;
4210;SDS011;2119;48.828;12.396;2023-04-24T07:52:49;2.03;;;1.77;;
4210;SDS011;2119;48.828;12.396;2023-04-24T07:57:57;2.87;;;2.67;;
4210;SDS011;2119;48.828;12.396;2023-04-24T08:03:05;3.03;;;2.83;;
4210;SDS011;2119;48.828;12.396;2023-04-24T08:08:05;3.60;;;3.30;;
4210;SDS011;2119;48.828;12.396;2023-04-24T08:18:19;1.70;;;1.60;;
4210;SDS011;2119;48.828;12.396;2023-04-24T08:23:19;1.70;;;1.60;;
4210;SDS011;2119;48.828;12.396;2023-04-24T08:28:33;2.00;;;1.80;;
4210;SDS011;2119;48.828;12.396;2023-04-24T08:33:35;2.20;;;1.80;;
4210;SDS011;2119;48.828;12.396;2023-04-24T08:38:35;1.50;;;1.40;;
4210;SDS011;2119;48.828;12.396;2023-04-24T08:43:35;2.67;;;2.47;;
4210;SDS011;2119;48.828;12.396;2023-04-24T08:48:51;2.30;;;2.07;;
4210;SDS011;2119;48.828;12.396;2023-04-24T08:53:54;5.37;;;2.73;;
4210;SDS011;2119;48.828;12.396;2023-04-24T08:58:59;2.03;;;1.93;;
4210;SDS011;2119;48.828;12.396;2023-04-24T09:04:02;2.40;;;2.20;;
4210;SDS011;2119;48.828;12.396;2023-04-24T09:09:03;1.70;;;1.43;;
4210;SDS011;2119;48.828;12.396;2023-04-24T09:14:03;1.25;;;1.15;;
4210;SDS011;2119;48.828;12.396;2023-04-24T09:19:04;1.27;;;1.10;;
4210;SDS011;2119;48.828;12.396;2023-04-24T09:24:05;1.43;;;1.33;;
4210;SDS011;2119;48.828;12.396;2023-04-24T09:29:13;1.70;;;1.60;;
4210;SDS011;2119;48.828;12.396;2023-04-24T09:34:13;1.50;;;1.40;;
4210;SDS011;2119;48.828;12.396;2023-04-24T09:39:22;2.05;;;1.88;;
4210;SDS011;2119;48.828;12.396;2023-04-24T09:49:26;2.13;;;1.93;;
4210;SDS011;2119;48.828;12.396;2023-04-24T09:54:33;2.47;;;1.80;;
4210;SDS011;2119;48.828;12.396;2023-04-24T09:59:45;14.80;;;7.67;;
4210;SDS011;2119;48.828;12.396;2023-04-24T10:05:04;1.43;;;1.33;;
4210;SDS011;2119;48.828;12.396;2023-04-24T10:10:18;1.73;;;1.63;;
4210;SDS011;2119;48.828;12.396;2023-04-24T10:15:18;1.83;;;1.63;;
4210;SDS011;2119;48.828;12.396;2023-04-24T10:20:26;1.70;;;1.60;;
4210;SDS011;2119;48.828;12.396;2023-04-24T10:25:31;2.93;;;1.60;;
4210;SDS011;2119;48.828;12.396;2023-04-24T10:30:32;1.50;;;1.40;;
4210;SDS011;2119;48.828;12.396;2023-04-24T10:35:40;1.70;;;1.60;;
4210;SDS011;2119;48.828;12.396;2023-04-24T10:40:40;1.67;;;1.57;;
4210;SDS011;2119;48.828;12.396;2023-04-24T10:51:18;2.13;;;1.70;;
4210;SDS011;2119;48.828;12.396;2023-04-24T10:56:22;2.07;;;1.60;;
4210;SDS011;2119;48.828;12.396;2023-04-24T11:01:27;1.70;;;1.60;;
4210;SDS011;2119;48.828;12.396;2023-04-24T11:06:36;1.83;;;1.73;;
4210;SDS011;2119;48.828;12.396;2023-04-24T11:11:37;1.80;;;1.70;;
4210;SDS011;2119;48.828;12.396;2023-04-24T11:16:44;3.77;;;1.73;;
4210;SDS011;2119;48.828;12.396;2023-04-24T11:27:17;2.07;;;1.60;;
4210;SDS011;2119;48.828;12.396;2023-04-24T11:37:33;2.30;;;2.10;;
4210;SDS011;2119;48.828;12.396;2023-04-24T11:42:43;3.17;;;1.83;;
4210;SDS011;2119;48.828;12.396;2023-04-24T11:53:05;2.13;;;1.93;;
4210;SDS011;2119;48.828;12.396;2023-04-24T11:58:05;1.40;;;1.30;;
4210;SDS011;2119;48.828;12.396;2023-04-24T12:03:09;2.10;;;1.10;;
4210;SDS011;2119;48.828;12.396;2023-04-24T12:08:12;1.20;;;1.10;;
4210;SDS011;2119;48.828;12.396;2023-04-24T12:13:19;1.50;;;1.40;;
4210;SDS011;2119;48.828;12.396;2023-04-24T12:18:23;1.30;;;1.07;;
4210;SDS011;2119;48.828;12.396;2023-04-24T12:23:33;1.23;;;1.13;;
4210;SDS011;2119;48.828;12.396;2023-04-24T12:28:35;1.40;;;1.30;;
4210;SDS011;2119;48.828;12.396;2023-04-24T12:33:38;1.30;;;1.20;;
4210;SDS011;2119;48.828;12.396;2023-04-24T12:38:38;1.10;;;1.00;;
4210;SDS011;2119;48.828;12.396;2023-04-24T12:43:54;2.63;;;1.60;;
4210;SDS011;2119;48.828;12.396;2023-04-24T12:48:55;1.80;;;1.30;;
4210;SDS011;2119;48.828;12.396;2023-04-24T12:53:55;2.13;;;2.00;;
4210;SDS011;2119;48.828;12.396;2023-04-24T12:58:56;1.63;;;1.52;;
4210;SDS011;2119;48.828;12.396;2023-04-24T13:03:57;4.30;;;2.57;;
4210;SDS011;2119;48.828;12.396;2023-04-24T13:08:59;3.55;;;2.47;;
4210;SDS011;2119;48.828;12.396;2023-04-24T13:14:00;1.80;;;1.53;;
4210;SDS011;2119;48.828;12.396;2023-04-24T13:19:00;1.63;;;1.52;;
4210;SDS011;2119;48.828;12.396;2023-04-24T13:24:00;1.83;;;1.73;;
4210;SDS011;2119;48.828;12.396;2023-04-24T13:29:00;1.77;;;1.67;;
4210;SDS011;2119;48.828;12.396;2023-04-24T13:34:01;1.67;;;1.40;;
4210;SDS011;2119;48.828;12.396;2023-04-24T13:39:02;1.70;;;1.60;;
4210;SDS011;2119;48.828;12.396;2023-04-24T13:44:06;1.70;;;1.60;;
4210;SDS011;2119;48.828;12.396;2023-04-24T13:49:07;21.67;;;2.03;;
4210;SDS011;2119;48.828;12.396;2023-04-24T13:59:14;1.70;;;1.60;;
4210;SDS011;2119;48.828;12.396;2023-04-24T14:09:18;2.60;;;1.77;;
4210;SDS011;2119;48.828;12.396;2023-04-24T14:14:18;2.15;;;1.30;;
4210;SDS011;2119;48.828;12.396;2023-04-24T14:19:20;1.50;;;1.40;;
4210;SDS011;2119;48.828;12.396;2023-04-24T14:24:22;1.50;;;1.40;;
4210;SDS011;2119;48.828;12.396;2023-04-24T14:29:22;2.57;;;1.90;;
4210;SDS011;2119;48.828;12.396;2023-04-24T14:34:25;1.40;;;1.30;;
4210;SDS011;2119;48.828;12.396;2023-04-24T14:39:28;2.47;;;1.37;;
4210;SDS011;2119;48.828;12.396;2023-04-24T14:44:28;2.10;;;1.60;;
4210;SDS011;2119;48.828;12.396;2023-04-24T14:49:28;1.70;;;1.60;;
4210;SDS011;2119;48.828;12.396;2023-04-24T14:54:39;1.70;;;1.60;;
4210;SDS011;2119;48.828;12.396;2023-04-24T14:59:39;2.43;;;1.90;;
4210;SDS011;2119;48.828;12.396;2023-04-24T15:04:40;1.97;;;1.87;;
4210;SDS011;2119;48.828;12.396;2023-04-24T15:09:40;1.60;;;1.40;;
4210;SDS011;2119;48.828;12.396;2023-04-24T15:14:40;1.90;;;1.70;;
4210;SDS011;2119;48.828;12.396;2023-04-24T15:19:40;1.50;;;1.40;;
4210;SDS011;2119;48.828;12.396;2023-04-24T15:24:40;1.50;;;1.40;;
4210;SDS011;2119;48.828;12.396;2023-04-24T15:29:41;1.38;;;1.27;;
4210;SDS011;2119;48.828;12.396;2023-04-24T15:34:42;1.30;;;1.20;;
4210;SDS011;2119;48.828;12.396;2023-04-24T15:39:42;1.40;;;1.30;;
4210;SDS011;2119;48.828;12.396;2023-04-24T15:44:44;1.40;;;1.20;;
4210;SDS011;2119;48.828;12.396;2023-04-24T15:49:44;1.60;;;1.50;;
4210;SDS011;2119;48.828;12.396;2023-04-24T15:54:46;1.60;;;1.50;;
4210;SDS011;2119;48.828;12.396;2023-04-24T15:59:46;2.67;;;1.27;;
4210;SDS011;2119;48.828;12.396;2023-04-24T16:04:47;1.40;;;1.30;;
4210;SDS011;2119;48.828;12.396;2023-04-24T16:09:48;1.63;;;1.30;;
4210;SDS011;2119;48.828;12.396;2023-04-24T16:14:49;1.55;;;1.40;;
4210;SDS011;2119;48.828;12.396;2023-04-24T16:19:49;2.07;;;1.87;;
4210;SDS011;2119;48.828;12.396;2023-04-24T16:24:50;2.58;;;1.45;;
4210;SDS011;2119;48.828;12.396;2023-04-24T16:29:53;2.70;;;1.67;;
4210;SDS011;2119;48.828;12.396;2023-04-24T16:34:55;2.93;;;2.40;;
4210;SDS011;2119;48.828;12.396;2023-04-24T16:39:58;4.03;;;1.80;;
4210;SDS011;2119;48.828;12.396;2023-04-24T16:44:59;1.60;;;1.50;;
4210;SDS011;2119;48.828;12.396;2023-04-24T16:50:00;1.87;;;1.77;;
4210;SDS011;2119;48.828;12.396;2023-04-24T16:55:02;2.25;;;2.05;;
4210;SDS011;2119;48.828;12.396;2023-04-24T17:05:06;2.10;;;1.90;;
4210;SDS011;2119;48.828;12.396;2023-04-24T17:10:06;1.63;;;1.53;;
4210;SDS011;2119;48.828;12.396;2023-04-24T17:15:08;2.57;;;1.63;;
4210;SDS011;2119;48.828;12.396;2023-04-24T17:20:09;1.97;;;1.87;;
4210;SDS011;2119;48.828;12.396;2023-04-24T17:25:09;2.27;;;2.07;;
4210;SDS011;2119;48.828;12.396;2023-04-24T17:30:16;1.70;;;1.60;;
4210;SDS011;2119;48.828;12.396;2023-04-24T17:35:16;1.70;;;1.60;;
4210;SDS011;2119;48.828;12.396;2023-04-24T17:40:21;1.60;;;1.50;;
4210;SDS011;2119;48.828;12.396;2023-04-24T17:45:23;2.00;;;1.80;;
4210;SDS011;2119;48.828;12.396;2023-04-24T17:50:25;1.70;;;1.60;;
4210;SDS011;2119;48.828;12.396;2023-04-24T17:55:25;1.77;;;1.60;;
4210;SDS011;2119;48.828;12.396;2023-04-24T18:00:26;1.70;;;1.60;;
4210;SDS011;2119;48.828;12.396;2023-04-24T18:05:28;1.80;;;1.70;;
4210;SDS011;2119;48.828;12.396;2023-04-24T18:10:29;1.83;;;1.70;;
4210;SDS011;2119;48.828;12.396;2023-04-24T18:15:35;2.10;;;1.90;;
4210;SDS011;2119;48.828;12.396;2023-04-24T18:20:36;2.60;;;2.40;;
4210;SDS011;2119;48.828;12.396;2023-04-24T18:25:42;2.27;;;2.07;;
4210;SDS011;2119;48.828;12.396;2023-04-24T18:30:49;2.17;;;2.07;;
4210;SDS011;2119;48.828;12.396;2023-04-24T18:35:53;2.03;;;1.73;;
4210;SDS011;2119;48.828;12.396;2023-04-24T18:40:58;1.80;;;1.70;;
4210;SDS011;2119;48.828;12.396;2023-04-24T18:45:58;2.30;;;2.10;;
4210;SDS011;2119;48.828;12.396;2023-04-24T18:50:58;1.70;;;1.60;;
4210;SDS011;2119;48.828;12.396;2023-04-24T18:56:00;2.00;;;1.70;;
4210;SDS011;2119;48.828;12.396;2023-04-24T19:01:02;1.97;;;1.87;;
4210;SDS011;2119;48.828;12.396;2023-04-24T19:06:03;2.03;;;1.93;;
4210;SDS011;2119;48.828;12.396;2023-04-24T19:11:04;2.67;;;1.90;;
4210;SDS011;2119;48.828;12.396;2023-04-24T19:16:05;1.83;;;1.73;;
4210;SDS011;2119;48.828;12.396;2023-04-24T19:21:05;2.10;;;2.00;;
4210;SDS011;2119;48.828;12.396;2023-04-24T19:26:09;3.20;;;2.88;;
4210;SDS011;2119;48.828;12.396;2023-04-24T19:31:10;2.70;;;2.50;;
4210;SDS011;2119;48.828;12.396;2023-04-24T19:36:10;3.25;;;2.40;;
4210;SDS011;2119;48.828;12.396;2023-04-24T19:41:11;2.47;;;2.27;;
4210;SDS011;2119;48.828;12.396;2023-04-24T19:46:13;2.80;;;2.60;;
4210;SDS011;2119;48.828;12.396;2023-04-24T19:51:13;5.30;;;3.07;;
4210;SDS011;2119;48.828;12.396;2023-04-24T19:56:13;2.90;;;2.70;;
4210;SDS011;2119;48.828;12.396;2023-04-24T20:01:14;2.85;;;2.65;;
4210;SDS011;2119;48.828;12.396;2023-04-24T20:06:14;3.00;;;2.80;;
4210;SDS011;2119;48.828;12.396;2023-04-24T20:11:15;2.50;;;2.30;;
4210;SDS011;2119;48.828;12.396;2023-04-24T20:16:15;3.47;;;2.67;;
4210;SDS011;2119;48.828;12.396;2023-04-24T20:21:16;2.50;;;2.30;;
4210;SDS011;2119;48.828;12.396;2023-04-24T20:26:16;3.10;;;2.80;;
4210;SDS011;2119;48.828;12.396;2023-04-24T20:31:16;2.90;;;2.70;;
4210;SDS011;2119;48.828;12.396;2023-04-24T20:36:18;6.00;;;4.60;;
4210;SDS011;2119;48.828;12.396;2023-04-24T20:41:18;3.90;;;3.43;;
4210;SDS011;2119;48.828;12.396;2023-04-24T20:46:18;2.80;;;2.55;;
4210;SDS011;2119;48.828;12.396;2023-04-24T20:51:19;4.03;;;2.50;;
4210;SDS011;2119;48.828;12.396;2023-04-24T20:56:19;8.43;;;6.10;;
4210;SDS011;2119;48.828;12.396;2023-04-24T21:01:20;4.97;;;3.40;;
4210;SDS011;2119;48.828;12.396;2023-04-24T21:06:20;3.37;;;3.17;;
4210;SDS011;2119;48.828;12.396;2023-04-24T21:11:21;3.80;;;3.40;;
4210;SDS011;2119;48.828;12.396;2023-04-24T21:16:21;4.50;;;4.10;;
4210;SDS011;2119;48.828;12.396;2023-04-24T21:21:21;3.63;;;3.33;;
4210;SDS011;2119;48.828;12.396;2023-04-24T21:26:24;3.57;;;3.27;;
4210;SDS011;2119;48.828;12.396;2023-04-24T21:31:24;3.43;;;3.13;;
4210;SDS011;2119;48.828;12.396;2023-04-24T21:36:25;3.10;;;2.90;;
4210;SDS011;2119;48.828;12.396;2023-04-24T21:41:25;3.97;;;3.57;;
4210;SDS011;2119;48.828;12.396;2023-04-24T21:46:26;3.47;;;3.17;;
4210;SDS011;2119;48.828;12.396;2023-04-24T21:51:26;3.67;;;3.38;;
4210;SDS011;2119;48.828;12.396;2023-04-24T21:56:27;3.83;;;3.47;;
4210;SDS011;2119;48.828;12.396;2023-04-24T22:01:27;4.30;;;3.90;;
4210;SDS011;2119;48.828;12.396;2023-04-24T22:06:27;3.90;;;3.60;;
4210;SDS011;2119;48.828;12.396;2023-04-24T22:11:28;3.60;;;3.30;;
4210;SDS011;2119;48.828;12.396;2023-04-24T22:16:28;4.30;;;3.75;;
4210;SDS011;2119;48.828;12.396;2023-04-24T22:21:28;4.43;;;3.67;;
4210;SDS011;2119;48.828;12.396;2023-04-24T22:26:28;3.20;;;3.00;;
4210;SDS011;2119;48.828;12.396;2023-04-24T22:31:29;3.95;;;3.58;;
4210;SDS011;2119;48.828;12.396;2023-04-24T22:36:29;4.73;;;3.53;;
4210;SDS011;2119;48.828;12.396;2023-04-24T22:41:30;3.60;;;3.30;;
4210;SDS011;2119;48.828;12.396;2023-04-24T22:46:30;3.03;;;2.80;;
4210;SDS011;2119;48.828;12.396;2023-04-24T22:51:34;3.65;;;3.35;;
4210;SDS011;2119;48.828;12.396;2023-04-24T22:56:34;5.00;;;3.27;;
4210;SDS011;2119;48.828;12.396;2023-04-24T23:01:35;3.90;;;3.53;;
4210;SDS011;2119;48.828;12.396;2023-04-24T23:06:35;4.00;;;3.60;;
4210;SDS011;2119;48.828;12.396;2023-04-24T23:11:35;4.80;;;4.37;;
4210;SDS011;2119;48.828;12.396;2023-04-24T23:16:36;3.63;;;3.33;;
4210;SDS011;2119;48.828;12.396;2023-04-24T23:21:36;4.50;;;3.53;;
4210;SDS011;2119;48.828;12.396;2023-04-24T23:26:37;4.47;;;4.07;;
4210;SDS011;2119;48.828;12.396;2023-04-24T23:31:37;4.57;;;4.27;;
4210;SDS011;2119;48.828;12.396;2023-04-24T23:36:37;5.30;;;4.20;;
4210;SDS011;2119;48.828;12.396;2023-04-24T23:41:39;4.50;;;4.10;;
4210;SDS011;2119;48.828;12.396;2023-04-24T23:46:42;3.67;;;3.47;;
4210;SDS011;2119;48.828;12.396;2023-04-24T23:51:42;3.50;;;3.20;;
4210;SDS011;2119;48.828;12.396;2023-04-24T23:56:42;3.60;;;3.27;;
